sensor_id;sensor_type;location;lat;lon;timestamp;pressure;altitude;pressure_sealevel;temperature;humidity
17060;BME280;8646;49.716;9.266;2022-11-23T00:02:52;98916.63;;;4.85;100.00
17060;BME280;8646;49.716;9.266;2022-11-23T00:05:54;98910.44;;;4.83;100.00
17060;BME280;8646;49.716;9.266;2022-11-23T00:08:57;98906.00;;;4.82;100.00
17060;BME280;8646;49.716;9.266;2022-11-23T00:12:01;98920.34;;;4.81;100.00
17060;BME280;8646;49.716;9.266;2022-11-23T00:15:04;98907.09;;;4.78;100.00
17060;BME280;8646;49.716;9.266;2022-11-23T00:18:09;98912.28;;;4.81;100.00
17060;BME280;8646;49.716;9.266;2022-11-23T00:21:13;98908.69;;;4.82;100.00
17060;BME280;8646;49.716;9.266;2022-11-23T00:24:16;98916.63;;;4.85;100.00
17060;BME280;8646;49.716;9.266;2022-11-23T00:27:19;98913.66;;;4.91;100.00
17060;BME280;8646;49.716;9.266;2022-11-23T00:30:22;98911.16;;;4.87;100.00
17060;BME280;8646;49.716;9.266;2022-11-23T00:33:26;98908.56;;;4.85;100.00
17060;BME280;8646;49.716;9.266;2022-11-23T00:36:29;98915.97;;;4.79;100.00
17060;BME280;8646;49.716;9.266;2022-11-23T00:39:32;98914.44;;;4.73;100.00
17060;BME280;8646;49.716;9.266;2022-11-23T00:42:34;98921.91;;;4.65;100.00
17060;BME280;8646;49.716;9.266;2022-11-23T00:45:38;98918.56;;;4.60;100.00
17060;BME280;8646;49.716;9.266;2022-11-23T00:48:44;98918.72;;;4.55;100.00
17060;BME280;8646;49.716;9.266;2022-11-23T00:51:47;98916.91;;;4.56;100.00
17060;BME280;8646;49.716;9.266;2022-11-23T00:54:49;98912.06;;;4.44;100.00
17060;BME280;8646;49.716;9.266;2022-11-23T00:57:52;98916.75;;;4.60;100.00
17060;BME280;8646;49.716;9.266;2022-11-23T01:01:03;98894.97;;;4.25;100.00
17060;BME280;8646;49.716;9.266;2022-11-23T01:04:08;98911.38;;;4.39;100.00
17060;BME280;8646;49.716;9.266;2022-11-23T01:07:11;98922.53;;;4.50;100.00
17060;BME280;8646;49.716;9.266;2022-11-23T01:10:14;98930.47;;;4.53;100.00
17060;BME280;8646;49.716;9.266;2022-11-23T01:13:16;98941.34;;;4.48;100.00
17060;BME280;8646;49.716;9.266;2022-11-23T01:16:20;98933.88;;;4.56;100.00
17060;BME280;8646;49.716;9.266;2022-11-23T01:19:26;98942.31;;;4.69;100.00
17060;BME280;8646;49.716;9.266;2022-11-23T01:22:31;98942.97;;;4.74;100.00
17060;BME280;8646;49.716;9.266;2022-11-23T01:25:34;98929.50;;;4.76;100.00
17060;BME280;8646;49.716;9.266;2022-11-23T01:28:38;98937.19;;;4.85;100.00
17060;BME280;8646;49.716;9.266;2022-11-23T01:31:41;98938.94;;;4.86;100.00
17060;BME280;8646;49.716;9.266;2022-11-23T01:34:48;98930.75;;;4.67;100.00
17060;BME280;8646;49.716;9.266;2022-11-23T01:37:51;98926.38;;;4.65;100.00
17060;BME280;8646;49.716;9.266;2022-11-23T01:40:54;98931.13;;;4.58;100.00
17060;BME280;8646;49.716;9.266;2022-11-23T01:43:57;98939.84;;;4.63;100.00
17060;BME280;8646;49.716;9.266;2022-11-23T01:47:01;98935.19;;;4.68;100.00
17060;BME280;8646;49.716;9.266;2022-11-23T01:50:06;98940.78;;;4.84;100.00
17060;BME280;8646;49.716;9.266;2022-11-23T01:53:09;98937.25;;;4.83;100.00
17060;BME280;8646;49.716;9.266;2022-11-23T01:56:14;98934.28;;;4.89;100.00
17060;BME280;8646;49.716;9.266;2022-11-23T01:59:18;98936.31;;;5.05;100.00
17060;BME280;8646;49.716;9.266;2022-11-23T02:02:22;98937.81;;;5.12;100.00
17060;BME280;8646;49.716;9.266;2022-11-23T02:05:31;98938.84;;;5.09;100.00
17060;BME280;8646;49.716;9.266;2022-11-23T02:08:35;98937.63;;;5.16;100.00
17060;BME280;8646;49.716;9.266;2022-11-23T02:11:38;98946.94;;;5.08;100.00
17060;BME280;8646;49.716;9.266;2022-11-23T02:14:41;98943.31;;;5.09;100.00
17060;BME280;8646;49.716;9.266;2022-11-23T02:17:44;98944.44;;;5.03;100.00
17060;BME280;8646;49.716;9.266;2022-11-23T02:20:49;98944.97;;;4.91;100.00
17060;BME280;8646;49.716;9.266;2022-11-23T02:23:58;98941.94;;;4.78;100.00
17060;BME280;8646;49.716;9.266;2022-11-23T02:27:05;98938.91;;;4.64;100.00
17060;BME280;8646;49.716;9.266;2022-11-23T02:30:09;98950.09;;;4.53;100.00
17060;BME280;8646;49.716;9.266;2022-11-23T02:33:12;98953.75;;;4.51;100.00
17060;BME280;8646;49.716;9.266;2022-11-23T02:36:35;98956.47;;;4.49;100.00
17060;BME280;8646;49.716;9.266;2022-11-23T02:39:42;98961.38;;;4.38;100.00
17060;BME280;8646;49.716;9.266;2022-11-23T02:42:49;98954.41;;;4.34;100.00
17060;BME280;8646;49.716;9.266;2022-11-23T02:45:53;98955.75;;;4.46;100.00
17060;BME280;8646;49.716;9.266;2022-11-23T02:48:57;98950.66;;;4.38;100.00
17060;BME280;8646;49.716;9.266;2022-11-23T02:52:02;98949.00;;;4.36;100.00
17060;BME280;8646;49.716;9.266;2022-11-23T02:55:05;98956.53;;;4.48;100.00
17060;BME280;8646;49.716;9.266;2022-11-23T02:58:10;98959.53;;;4.40;100.00
17060;BME280;8646;49.716;9.266;2022-11-23T03:01:13;98961.09;;;4.46;100.00
17060;BME280;8646;49.716;9.266;2022-11-23T03:04:15;98961.78;;;4.51;100.00
17060;BME280;8646;49.716;9.266;2022-11-23T03:07:26;98960.13;;;4.70;100.00
17060;BME280;8646;49.716;9.266;2022-11-23T03:10:29;98961.13;;;4.68;100.00
17060;BME280;8646;49.716;9.266;2022-11-23T03:13:33;98953.81;;;4.71;100.00
17060;BME280;8646;49.716;9.266;2022-11-23T03:16:36;98946.47;;;4.76;100.00
17060;BME280;8646;49.716;9.266;2022-11-23T03:19:39;98951.78;;;4.78;100.00
17060;BME280;8646;49.716;9.266;2022-11-23T03:22:42;98953.38;;;4.82;100.00
17060;BME280;8646;49.716;9.266;2022-11-23T03:25:53;98949.16;;;4.76;100.00
17060;BME280;8646;49.716;9.266;2022-11-23T03:28:58;98953.38;;;4.82;100.00
17060;BME280;8646;49.716;9.266;2022-11-23T03:32:01;98955.06;;;4.84;100.00
17060;BME280;8646;49.716;9.266;2022-11-23T03:35:05;98956.94;;;4.82;100.00
17060;BME280;8646;49.716;9.266;2022-11-23T03:38:09;98960.44;;;4.84;100.00
17060;BME280;8646;49.716;9.266;2022-11-23T03:41:12;98961.16;;;4.88;100.00
17060;BME280;8646;49.716;9.266;2022-11-23T03:44:16;98960.44;;;4.84;100.00
17060;BME280;8646;49.716;9.266;2022-11-23T03:47:18;98954.75;;;4.92;100.00
17060;BME280;8646;49.716;9.266;2022-11-23T03:50:21;98961.16;;;4.88;100.00
17060;BME280;8646;49.716;9.266;2022-11-23T03:53:24;98951.09;;;4.94;100.00
17060;BME280;8646;49.716;9.266;2022-11-23T03:56:27;98955.63;;;4.92;100.00
17060;BME280;8646;49.716;9.266;2022-11-23T03:59:31;98954.53;;;4.96;100.00
17060;BME280;8646;49.716;9.266;2022-11-23T04:02:34;98963.28;;;5.02;100.00
17060;BME280;8646;49.716;9.266;2022-11-23T04:05:37;98961.88;;;4.93;100.00
17060;BME280;8646;49.716;9.266;2022-11-23T04:08:40;98965.41;;;4.93;100.00
17060;BME280;8646;49.716;9.266;2022-11-23T04:11:42;98965.84;;;4.83;100.00
17060;BME280;8646;49.716;9.266;2022-11-23T04:14:46;98966.78;;;4.82;100.00
17060;BME280;8646;49.716;9.266;2022-11-23T04:17:49;98963.94;;;4.86;100.00
17060;BME280;8646;49.716;9.266;2022-11-23T04:20:52;98953.44;;;5.02;100.00
17060;BME280;8646;49.716;9.266;2022-11-23T04:23:55;98949.56;;;5.09;100.00
17060;BME280;8646;49.716;9.266;2022-11-23T04:26:58;98949.41;;;5.12;100.00
17060;BME280;8646;49.716;9.266;2022-11-23T04:30:02;98950.34;;;5.11;100.00
17060;BME280;8646;49.716;9.266;2022-11-23T04:33:05;98943.00;;;5.16;100.00
17060;BME280;8646;49.716;9.266;2022-11-23T04:36:08;98944.84;;;5.14;100.00
17060;BME280;8646;49.716;9.266;2022-11-23T04:39:11;98942.06;;;5.17;100.00
17060;BME280;8646;49.716;9.266;2022-11-23T04:42:14;98946.13;;;5.06;100.00
17060;BME280;8646;49.716;9.266;2022-11-23T04:45:18;98951.81;;;4.98;100.00
17060;BME280;8646;49.716;9.266;2022-11-23T04:48:21;98954.03;;;5.09;100.00
17060;BME280;8646;49.716;9.266;2022-11-23T04:51:24;98961.34;;;5.05;100.00
17060;BME280;8646;49.716;9.266;2022-11-23T04:54:27;98956.47;;;5.15;100.00
17060;BME280;8646;49.716;9.266;2022-11-23T04:57:30;98954.03;;;5.09;100.00
17060;BME280;8646;49.716;9.266;2022-11-23T05:00:34;98957.28;;;5.17;100.00
17060;BME280;8646;49.716;9.266;2022-11-23T05:03:37;98960.63;;;5.22;100.00
17060;BME280;8646;49.716;9.266;2022-11-23T05:06:39;98959.91;;;5.18;100.00
17060;BME280;8646;49.716;9.266;2022-11-23T05:09:42;98955.25;;;5.22;100.00
17060;BME280;8646;49.716;9.266;2022-11-23T05:12:45;98964.25;;;5.21;100.00
17060;BME280;8646;49.716;9.266;2022-11-23T05:15:49;98962.25;;;5.26;100.00
17060;BME280;8646;49.716;9.266;2022-11-23T05:18:52;98958.69;;;5.25;100.00
17060;BME280;8646;49.716;9.266;2022-11-23T05:21:54;98953.13;;;5.30;100.00
17060;BME280;8646;49.716;9.266;2022-11-23T05:24:57;98958.63;;;5.27;100.00
17060;BME280;8646;49.716;9.266;2022-11-23T05:28:00;98954.00;;;5.30;100.00
17060;BME280;8646;49.716;9.266;2022-11-23T05:31:25;98952.06;;;5.34;100.00
17060;BME280;8646;49.716;9.266;2022-11-23T05:34:27;98948.03;;;5.24;100.00
17060;BME280;8646;49.716;9.266;2022-11-23T05:37:30;98957.00;;;5.23;100.00
17060;BME280;8646;49.716;9.266;2022-11-23T05:40:34;98958.22;;;5.36;100.00
17060;BME280;8646;49.716;9.266;2022-11-23T05:43:37;98957.28;;;5.37;100.00
17060;BME280;8646;49.716;9.266;2022-11-23T05:46:41;98960.13;;;5.34;100.00
17060;BME280;8646;49.716;9.266;2022-11-23T05:49:44;98962.09;;;5.29;100.00
17060;BME280;8646;49.716;9.266;2022-11-23T05:52:47;98958.44;;;5.31;100.00
17060;BME280;8646;49.716;9.266;2022-11-23T05:55:49;98966.00;;;5.22;100.00
17060;BME280;8646;49.716;9.266;2022-11-23T05:58:53;98958.50;;;5.30;100.00
17060;BME280;8646;49.716;9.266;2022-11-23T06:01:57;98964.00;;;5.27;100.00
17060;BME280;8646;49.716;9.266;2022-11-23T06:05:01;98964.06;;;5.25;100.00
17060;BME280;8646;49.716;9.266;2022-11-23T06:08:04;98951.38;;;5.29;100.00
17060;BME280;8646;49.716;9.266;2022-11-23T06:11:07;98960.13;;;5.34;100.00
17060;BME280;8646;49.716;9.266;2022-11-23T06:14:10;98965.31;;;5.37;100.00
17060;BME280;8646;49.716;9.266;2022-11-23T06:17:16;98961.59;;;5.41;100.00
17060;BME280;8646;49.716;9.266;2022-11-23T06:20:19;98966.16;;;5.39;100.00
17060;BME280;8646;49.716;9.266;2022-11-23T06:23:22;98963.69;;;5.34;100.00
17060;BME280;8646;49.716;9.266;2022-11-23T06:26:25;98962.66;;;5.37;100.00
17060;BME280;8646;49.716;9.266;2022-11-23T06:29:28;98966.41;;;5.33;100.00
17060;BME280;8646;49.716;9.266;2022-11-23T06:32:33;98969.75;;;5.38;100.00
17060;BME280;8646;49.716;9.266;2022-11-23T06:35:36;98983.16;;;5.38;100.00
17060;BME280;8646;49.716;9.266;2022-11-23T06:38:39;98970.47;;;5.43;100.00
17060;BME280;8646;49.716;9.266;2022-11-23T06:41:41;98969.81;;;5.36;100.00
17060;BME280;8646;49.716;9.266;2022-11-23T06:44:45;98968.00;;;5.37;100.00
17060;BME280;8646;49.716;9.266;2022-11-23T06:47:49;98972.31;;;5.41;100.00
17060;BME280;8646;49.716;9.266;2022-11-23T06:50:51;98966.97;;;5.41;100.00
17060;BME280;8646;49.716;9.266;2022-11-23T06:53:55;98974.19;;;5.39;100.00
17060;BME280;8646;49.716;9.266;2022-11-23T06:56:57;98973.91;;;5.45;100.00
17060;BME280;8646;49.716;9.266;2022-11-23T07:00:01;98973.03;;;5.45;100.00
17060;BME280;8646;49.716;9.266;2022-11-23T07:03:05;98988.47;;;5.40;100.00
17060;BME280;8646;49.716;9.266;2022-11-23T07:06:09;98979.44;;;5.42;100.00
17060;BME280;8646;49.716;9.266;2022-11-23T07:09:12;98987.88;;;5.33;100.00
17060;BME280;8646;49.716;9.266;2022-11-23T07:12:15;98957.22;;;5.18;100.00
17060;BME280;8646;49.716;9.266;2022-11-23T07:15:17;98982.50;;;5.53;100.00
17060;BME280;8646;49.716;9.266;2022-11-23T07:18:21;98989.44;;;5.59;100.00
17060;BME280;8646;49.716;9.266;2022-11-23T07:21:24;98990.50;;;5.55;100.00
17060;BME280;8646;49.716;9.266;2022-11-23T07:24:28;98996.34;;;5.64;100.00
17060;BME280;8646;49.716;9.266;2022-11-23T07:27:40;98987.06;;;5.71;100.00
17060;BME280;8646;49.716;9.266;2022-11-23T07:30:43;99000.56;;;5.70;100.00
17060;BME280;8646;49.716;9.266;2022-11-23T07:33:47;98997.47;;;5.79;100.00
17060;BME280;8646;49.716;9.266;2022-11-23T07:36:50;98995.00;;;5.74;100.00
17060;BME280;8646;49.716;9.266;2022-11-23T07:39:53;98988.00;;;5.70;100.00
17060;BME280;8646;49.716;9.266;2022-11-23T07:42:59;99001.16;;;5.76;100.00
17060;BME280;8646;49.716;9.266;2022-11-23T07:46:02;98988.28;;;5.85;100.00
17060;BME280;8646;49.716;9.266;2022-11-23T07:49:06;98993.41;;;5.91;100.00
17060;BME280;8646;49.716;9.266;2022-11-23T07:52:09;98991.69;;;5.90;100.00
17060;BME280;8646;49.716;9.266;2022-11-23T07:55:12;98993.25;;;5.94;100.00
17060;BME280;8646;49.716;9.266;2022-11-23T07:58:14;99002.72;;;6.02;100.00
17060;BME280;8646;49.716;9.266;2022-11-23T08:01:18;98982.13;;;6.03;100.00
17060;BME280;8646;49.716;9.266;2022-11-23T08:04:22;98994.31;;;6.10;100.00
17060;BME280;8646;49.716;9.266;2022-11-23T08:07:27;99004.28;;;6.08;100.00
17060;BME280;8646;49.716;9.266;2022-11-23T08:10:32;99011.19;;;6.13;100.00
17060;BME280;8646;49.716;9.266;2022-11-23T08:13:42;98997.91;;;6.29;100.00
17060;BME280;8646;49.716;9.266;2022-11-23T08:16:47;98996.97;;;6.30;100.00
17060;BME280;8646;49.716;9.266;2022-11-23T08:19:51;98990.31;;;6.39;100.00
17060;BME280;8646;49.716;9.266;2022-11-23T08:22:54;99001.13;;;6.37;100.00
17060;BME280;8646;49.716;9.266;2022-11-23T08:25:57;98995.25;;;6.48;100.00
17060;BME280;8646;49.716;9.266;2022-11-23T08:29:01;99002.94;;;6.56;100.00
17060;BME280;8646;49.716;9.266;2022-11-23T08:32:04;98997.56;;;6.56;100.00
17060;BME280;8646;49.716;9.266;2022-11-23T08:35:08;99002.94;;;6.56;100.00
17060;BME280;8646;49.716;9.266;2022-11-23T08:38:11;98999.16;;;6.60;100.00
17060;BME280;8646;49.716;9.266;2022-11-23T08:41:14;99005.97;;;6.67;100.00
17060;BME280;8646;49.716;9.266;2022-11-23T08:44:18;99003.34;;;6.65;100.00
17060;BME280;8646;49.716;9.266;2022-11-23T08:47:21;99004.34;;;6.64;100.00
17060;BME280;8646;49.716;9.266;2022-11-23T08:50:25;99002.28;;;6.69;100.00
17060;BME280;8646;49.716;9.266;2022-11-23T08:53:29;99000.16;;;6.76;100.00
17060;BME280;8646;49.716;9.266;2022-11-23T08:56:32;99009.34;;;6.72;100.00
17060;BME280;8646;49.716;9.266;2022-11-23T08:59:35;99007.28;;;6.77;100.00
17060;BME280;8646;49.716;9.266;2022-11-23T09:02:37;99004.53;;;6.78;100.00
17060;BME280;8646;49.716;9.266;2022-11-23T09:05:41;99006.34;;;6.78;100.00
17060;BME280;8646;49.716;9.266;2022-11-23T09:08:44;99006.84;;;6.86;100.00
17060;BME280;8646;49.716;9.266;2022-11-23T09:11:47;99011.78;;;6.95;100.00
17060;BME280;8646;49.716;9.266;2022-11-23T09:14:51;99010.91;;;7.13;100.00
17060;BME280;8646;49.716;9.266;2022-11-23T09:17:55;99004.00;;;7.25;99.17
17060;BME280;8646;49.716;9.266;2022-11-23T09:21:01;99012.81;;;7.28;99.22
17060;BME280;8646;49.716;9.266;2022-11-23T09:24:04;99006.09;;;7.37;98.66
17060;BME280;8646;49.716;9.266;2022-11-23T09:27:07;99011.88;;;7.47;97.64
17060;BME280;8646;49.716;9.266;2022-11-23T09:30:11;99011.72;;;7.50;97.84
17060;BME280;8646;49.716;9.266;2022-11-23T09:33:14;99011.66;;;7.51;97.34
17060;BME280;8646;49.716;9.266;2022-11-23T09:36:18;99012.34;;;7.55;98.01
17060;BME280;8646;49.716;9.266;2022-11-23T09:39:21;99014.81;;;7.59;97.62
17060;BME280;8646;49.716;9.266;2022-11-23T09:42:35;99011.25;;;7.59;97.80
17060;BME280;8646;49.716;9.266;2022-11-23T09:45:46;99014.56;;;7.64;97.59
17060;BME280;8646;49.716;9.266;2022-11-23T09:49:12;99005.56;;;7.65;96.70
17060;BME280;8646;49.716;9.266;2022-11-23T09:52:21;99001.66;;;7.71;96.71
17060;BME280;8646;49.716;9.266;2022-11-23T09:55:31;99002.25;;;7.60;96.96
17060;BME280;8646;49.716;9.266;2022-11-23T09:58:38;99002.16;;;7.61;96.75
17060;BME280;8646;49.716;9.266;2022-11-23T10:01:41;98997.66;;;7.62;96.46
17060;BME280;8646;49.716;9.266;2022-11-23T10:04:44;98999.38;;;7.63;96.66
17060;BME280;8646;49.716;9.266;2022-11-23T10:07:58;98995.19;;;7.57;97.12
17060;BME280;8646;49.716;9.266;2022-11-23T10:11:19;98995.81;;;7.62;96.89
17060;BME280;8646;49.716;9.266;2022-11-23T10:14:38;98985.75;;;7.66;97.29
17060;BME280;8646;49.716;9.266;2022-11-23T10:18:01;98981.56;;;7.78;95.75
17060;BME280;8646;49.716;9.266;2022-11-23T10:21:13;98979.34;;;7.86;95.18
17060;BME280;8646;49.716;9.266;2022-11-23T10:24:25;98982.72;;;7.89;95.81
17060;BME280;8646;49.716;9.266;2022-11-23T10:27:31;98970.69;;;7.96;96.13
17060;BME280;8646;49.716;9.266;2022-11-23T10:30:34;98979.06;;;8.08;95.54
17060;BME280;8646;49.716;9.266;2022-11-23T10:33:46;98969.34;;;8.21;94.44
17060;BME280;8646;49.716;9.266;2022-11-23T10:36:51;98964.69;;;8.24;94.76
17060;BME280;8646;49.716;9.266;2022-11-23T10:39:55;98976.13;;;8.45;95.11
17060;BME280;8646;49.716;9.266;2022-11-23T10:43:00;98960.06;;;8.59;92.33
17060;BME280;8646;49.716;9.266;2022-11-23T10:46:27;98959.00;;;8.77;91.31
17060;BME280;8646;49.716;9.266;2022-11-23T10:49:32;98961.69;;;8.93;90.34
17060;BME280;8646;49.716;9.266;2022-11-23T10:52:35;98953.59;;;9.09;90.89
17060;BME280;8646;49.716;9.266;2022-11-23T10:55:47;98954.34;;;9.27;91.09
17060;BME280;8646;49.716;9.266;2022-11-23T10:58:50;98946.72;;;9.49;90.34
17060;BME280;8646;49.716;9.266;2022-11-23T11:02:08;98950.75;;;9.72;90.24
17060;BME280;8646;49.716;9.266;2022-11-23T11:05:21;98944.09;;;9.91;89.31
17060;BME280;8646;49.716;9.266;2022-11-23T11:08:49;98937.56;;;10.10;89.09
17060;BME280;8646;49.716;9.266;2022-11-23T11:11:53;98932.72;;;10.15;88.21
17060;BME280;8646;49.716;9.266;2022-11-23T11:14:59;98935.34;;;10.16;87.59
17060;BME280;8646;49.716;9.266;2022-11-23T11:18:17;98928.28;;;10.14;86.74
17060;BME280;8646;49.716;9.266;2022-11-23T11:21:21;98925.69;;;10.12;86.19
17060;BME280;8646;49.716;9.266;2022-11-23T11:24:30;98923.09;;;10.11;86.68
17060;BME280;8646;49.716;9.266;2022-11-23T11:27:35;98906.88;;;10.11;86.27
17060;BME280;8646;49.716;9.266;2022-11-23T11:30:44;98906.00;;;10.10;86.39
17060;BME280;8646;49.716;9.266;2022-11-23T11:33:54;98904.06;;;10.12;86.52
17060;BME280;8646;49.716;9.266;2022-11-23T11:37:06;98868.75;;;10.01;86.39
17060;BME280;8646;49.716;9.266;2022-11-23T11:40:18;98890.34;;;10.15;85.90
17060;BME280;8646;49.716;9.266;2022-11-23T11:43:27;98890.00;;;10.21;85.35
17060;BME280;8646;49.716;9.266;2022-11-23T11:46:44;98884.41;;;10.24;84.42
17060;BME280;8646;49.716;9.266;2022-11-23T11:49:49;98875.31;;;10.25;84.23
17060;BME280;8646;49.716;9.266;2022-11-23T11:52:59;98878.91;;;10.26;84.04
17060;BME280;8646;49.716;9.266;2022-11-23T11:56:11;98871.75;;;10.25;83.84
17060;BME280;8646;49.716;9.266;2022-11-23T11:59:24;98853.69;;;10.11;83.33
17060;BME280;8646;49.716;9.266;2022-11-23T12:02:30;98867.41;;;10.37;83.02
17060;BME280;8646;49.716;9.266;2022-11-23T12:05:37;98868.50;;;10.47;83.33
17060;BME280;8646;49.716;9.266;2022-11-23T12:08:45;98859.84;;;10.42;83.21
17060;BME280;8646;49.716;9.266;2022-11-23T12:11:52;98863.59;;;10.39;82.36
17060;BME280;8646;49.716;9.266;2022-11-23T12:14:56;98857.53;;;10.36;82.67
17060;BME280;8646;49.716;9.266;2022-11-23T12:21:52;98854.16;;;10.32;81.73
17060;BME280;8646;49.716;9.266;2022-11-23T12:25:10;98845.41;;;10.28;82.19
17060;BME280;8646;49.716;9.266;2022-11-23T12:28:30;98841.81;;;10.28;82.26
17060;BME280;8646;49.716;9.266;2022-11-23T12:31:42;98840.94;;;10.27;82.21
17060;BME280;8646;49.716;9.266;2022-11-23T12:34:58;98843.75;;;10.26;82.04
17060;BME280;8646;49.716;9.266;2022-11-23T12:38:18;98834.78;;;10.25;82.09
17060;BME280;8646;49.716;9.266;2022-11-23T12:41:36;98834.00;;;10.23;82.14
17060;BME280;8646;49.716;9.266;2022-11-23T12:44:52;98829.53;;;10.22;82.52
17060;BME280;8646;49.716;9.266;2022-11-23T12:48:11;98833.34;;;10.20;82.80
17060;BME280;8646;49.716;9.266;2022-11-23T12:51:22;98826.28;;;10.17;82.19
17060;BME280;8646;49.716;9.266;2022-11-23T12:54:51;98818.47;;;10.13;82.69
17060;BME280;8646;49.716;9.266;2022-11-23T12:58:00;98824.06;;;10.10;81.46
17060;BME280;8646;49.716;9.266;2022-11-23T13:01:11;98821.44;;;10.08;81.31
17060;BME280;8646;49.716;9.266;2022-11-23T13:08:09;98819.53;;;9.96;81.70
17060;BME280;8646;49.716;9.266;2022-11-23T13:11:20;98815.28;;;9.92;81.12
17060;BME280;8646;49.716;9.266;2022-11-23T13:14:31;98813.63;;;9.89;81.36
17060;BME280;8646;49.716;9.266;2022-11-23T13:17:43;98813.94;;;9.85;81.14
17060;BME280;8646;49.716;9.266;2022-11-23T13:21:13;98816.94;;;9.80;81.35
17060;BME280;8646;49.716;9.266;2022-11-23T13:24:26;98824.34;;;9.77;81.43
17060;BME280;8646;49.716;9.266;2022-11-23T13:27:40;98815.38;;;9.76;81.20
17060;BME280;8646;49.716;9.266;2022-11-23T13:30:43;98820.88;;;9.75;81.24
17060;BME280;8646;49.716;9.266;2022-11-23T13:34:42;98805.63;;;9.74;81.50
17060;BME280;8646;49.716;9.266;2022-11-23T13:38:17;98801.97;;;9.75;80.88
17060;BME280;8646;49.716;9.266;2022-11-23T13:45:27;98789.25;;;9.77;79.68
17060;BME280;8646;49.716;9.266;2022-11-23T13:48:41;98790.28;;;9.74;79.76
17060;BME280;8646;49.716;9.266;2022-11-23T13:52:04;98788.78;;;9.70;79.59
17060;BME280;8646;49.716;9.266;2022-11-23T13:55:20;98782.97;;;9.62;79.68
17060;BME280;8646;49.716;9.266;2022-11-23T13:58:38;98775.75;;;9.63;78.99
17060;BME280;8646;49.716;9.266;2022-11-23T14:02:02;98771.69;;;9.55;79.53
17060;BME280;8646;49.716;9.266;2022-11-23T14:05:30;98768.50;;;9.49;79.10
17060;BME280;8646;49.716;9.266;2022-11-23T14:08:39;98776.91;;;9.44;78.79
17060;BME280;8646;49.716;9.266;2022-11-23T14:11:51;98768.41;;;9.36;78.90
17060;BME280;8646;49.716;9.266;2022-11-23T14:15:00;98767.72;;;9.33;78.81
17060;BME280;8646;49.716;9.266;2022-11-23T14:18:26;98752.78;;;9.27;77.89
17060;BME280;8646;49.716;9.266;2022-11-23T14:21:41;98746.81;;;9.22;77.77
17060;BME280;8646;49.716;9.266;2022-11-23T14:25:15;98738.22;;;9.15;77.30
17060;BME280;8646;49.716;9.266;2022-11-23T14:28:39;98745.81;;;9.09;77.43
17060;BME280;8646;49.716;9.266;2022-11-23T14:31:55;98736.34;;;9.02;77.23
17060;BME280;8646;49.716;9.266;2022-11-23T14:35:14;98725.38;;;8.91;78.20
17060;BME280;8646;49.716;9.266;2022-11-23T14:38:41;98722.16;;;8.84;77.58
17060;BME280;8646;49.716;9.266;2022-11-23T14:41:49;98734.97;;;8.80;77.20
17060;BME280;8646;49.716;9.266;2022-11-23T14:45:00;98733.72;;;8.72;77.82
17060;BME280;8646;49.716;9.266;2022-11-23T14:48:19;98728.78;;;8.64;77.67
17060;BME280;8646;49.716;9.266;2022-11-23T14:51:24;98726.44;;;8.58;77.24
17060;BME280;8646;49.716;9.266;2022-11-23T14:54:27;98727.78;;;8.51;77.51
17060;BME280;8646;49.716;9.266;2022-11-23T14:57:38;98743.53;;;8.43;77.49
17060;BME280;8646;49.716;9.266;2022-11-23T15:00:44;98735.63;;;8.40;77.36
17060;BME280;8646;49.716;9.266;2022-11-23T15:03:56;98729.94;;;8.29;77.70
17060;BME280;8646;49.716;9.266;2022-11-23T15:07:02;98732.41;;;8.18;78.06
17060;BME280;8646;49.716;9.266;2022-11-23T15:10:18;98738.34;;;8.09;78.61
17060;BME280;8646;49.716;9.266;2022-11-23T15:13:27;98733.41;;;8.01;78.64
17060;BME280;8646;49.716;9.266;2022-11-23T15:16:38;98732.34;;;7.88;79.33
17060;BME280;8646;49.716;9.266;2022-11-23T15:19:51;98720.38;;;7.78;79.62
17060;BME280;8646;49.716;9.266;2022-11-23T15:22:55;98733.28;;;7.71;80.03
17060;BME280;8646;49.716;9.266;2022-11-23T15:25:59;98731.28;;;7.59;80.04
17060;BME280;8646;49.716;9.266;2022-11-23T15:29:04;98710.50;;;7.30;81.01
17060;BME280;8646;49.716;9.266;2022-11-23T15:32:22;98744.00;;;7.40;80.91
17060;BME280;8646;49.716;9.266;2022-11-23T15:35:36;98755.47;;;7.27;81.29
17060;BME280;8646;49.716;9.266;2022-11-23T15:38:40;98757.84;;;7.16;81.64
17060;BME280;8646;49.716;9.266;2022-11-23T15:41:43;98765.53;;;7.07;82.36
17060;BME280;8646;49.716;9.266;2022-11-23T15:44:47;98767.00;;;6.97;82.62
17060;BME280;8646;49.716;9.266;2022-11-23T15:47:58;98770.09;;;6.89;82.76
17060;BME280;8646;49.716;9.266;2022-11-23T15:51:02;98766.75;;;6.84;82.86
17060;BME280;8646;49.716;9.266;2022-11-23T15:54:14;98775.47;;;6.72;83.61
17060;BME280;8646;49.716;9.266;2022-11-23T15:57:21;98769.59;;;6.64;83.65
17060;BME280;8646;49.716;9.266;2022-11-23T16:00:25;98768.19;;;6.57;83.96
17060;BME280;8646;49.716;9.266;2022-11-23T16:03:40;98777.47;;;6.49;84.41
17060;BME280;8646;49.716;9.266;2022-11-23T16:06:46;98780.97;;;6.51;84.29
17060;BME280;8646;49.716;9.266;2022-11-23T16:10:15;98789.28;;;6.47;84.44
17060;BME280;8646;49.716;9.266;2022-11-23T16:13:33;98800.31;;;6.41;84.63
17060;BME280;8646;49.716;9.266;2022-11-23T16:16:37;98798.72;;;6.37;84.84
17060;BME280;8646;49.716;9.266;2022-11-23T16:19:47;98802.59;;;6.31;84.97
17060;BME280;8646;49.716;9.266;2022-11-23T16:22:51;98807.09;;;6.31;84.90
17060;BME280;8646;49.716;9.266;2022-11-23T16:25:57;98814.44;;;6.27;85.21
17060;BME280;8646;49.716;9.266;2022-11-23T16:29:02;98829.59;;;6.28;85.39
17060;BME280;8646;49.716;9.266;2022-11-23T16:32:21;98826.59;;;6.34;85.87
17060;BME280;8646;49.716;9.266;2022-11-23T16:35:24;98825.94;;;6.48;85.78
17060;BME280;8646;49.716;9.266;2022-11-23T16:38:27;98824.69;;;6.55;86.02
17060;BME280;8646;49.716;9.266;2022-11-23T16:41:29;98816.72;;;6.71;85.30
17060;BME280;8646;49.716;9.266;2022-11-23T16:44:34;98818.38;;;6.73;84.71
17060;BME280;8646;49.716;9.266;2022-11-23T16:47:50;98833.19;;;6.65;84.67
17060;BME280;8646;49.716;9.266;2022-11-23T16:50:55;98833.38;;;6.60;84.60
17060;BME280;8646;49.716;9.266;2022-11-23T16:53:58;98826.72;;;6.50;85.17
17060;BME280;8646;49.716;9.266;2022-11-23T16:57:56;98835.97;;;6.44;85.54
17060;BME280;8646;49.716;9.266;2022-11-23T17:01:01;98840.97;;;6.52;86.22
17060;BME280;8646;49.716;9.266;2022-11-23T17:04:04;98848.31;;;6.66;85.81